createdAt,value
2018-12-12T00:01:35.193Z,5.60
2018-12-12T00:04:06.250Z,5.70
2018-12-12T00:06:37.300Z,5.70
2018-12-12T00:09:07.436Z,5.90
2018-12-12T00:11:37.447Z,5.90
2018-12-12T00:14:06.399Z,5.70
2018-12-12T00:16:35.379Z,5.80
2018-12-12T00:19:04.342Z,5.70
2018-12-12T00:21:33.306Z,5.60
2018-12-12T00:24:02.262Z,5.40
2018-12-12T00:26:31.213Z,5.50
2018-12-12T00:29:00.187Z,5.30
2018-12-12T00:31:29.207Z,5.40
2018-12-12T00:33:58.149Z,5.60
2018-12-12T00:36:27.072Z,5.70
2018-12-12T00:38:56.064Z,5.70
2018-12-12T00:41:25.042Z,5.70
2018-12-12T00:43:54.093Z,5.80
2018-12-12T00:46:23.206Z,5.70
2018-12-12T00:48:52.146Z,6.10
2018-12-12T00:51:21.081Z,6.00
2018-12-12T00:53:50.024Z,6.10
2018-12-12T00:56:18.914Z,6.10
2018-12-12T01:01:16.505Z,6.40
2018-12-12T01:03:45.474Z,6.20
2018-12-12T01:06:14.394Z,6.40
2018-12-12T01:08:46.372Z,6.40
2018-12-12T01:11:20.891Z,6.10
2018-12-12T01:13:49.854Z,6.20
2018-12-12T01:16:18.773Z,6.00
2018-12-12T01:21:16.250Z,5.70
2018-12-12T01:23:45.239Z,5.70
2018-12-12T01:26:14.176Z,5.70
2018-12-12T01:28:43.142Z,6.00
2018-12-12T01:31:12.166Z,6.00
2018-12-12T01:33:41.079Z,6.00
2018-12-12T01:36:10.018Z,6.00
2018-12-12T01:38:38.936Z,6.00
2018-12-12T01:43:36.508Z,5.90
2018-12-12T01:46:05.632Z,5.30
2018-12-12T01:48:34.729Z,5.40
2018-12-12T01:51:03.689Z,5.00
2018-12-12T01:53:33.153Z,5.30
2018-12-12T01:56:02.211Z,4.80
2018-12-12T01:58:31.217Z,4.90
2018-12-12T02:01:00.132Z,4.80
2018-12-12T02:03:29.091Z,4.90
2018-12-12T02:05:58.028Z,4.90
2018-12-12T02:10:55.739Z,4.90
2018-12-12T02:13:34.846Z,4.50
2018-12-12T02:16:05.269Z,4.50
2018-12-12T02:18:35.566Z,4.20
2018-12-12T02:21:04.534Z,4.00
2018-12-12T02:23:33.562Z,4.10
2018-12-12T02:26:02.543Z,3.80
2018-12-12T02:28:31.501Z,4.30
2018-12-12T02:31:00.451Z,4.20
2018-12-12T02:33:29.442Z,4.20
2018-12-12T02:35:58.428Z,4.30
2018-12-12T02:38:27.364Z,4.50
2018-12-12T02:43:25.068Z,4.40
2018-12-12T02:45:53.975Z,4.20
2018-12-12T02:48:23.112Z,4.00
2018-12-12T02:50:52.096Z,3.90
2018-12-12T02:58:18.218Z,4.10
2018-12-12T03:00:47.258Z,4.00
2018-12-12T03:03:16.245Z,4.30
2018-12-12T03:05:45.289Z,4.20
2018-12-12T03:08:14.241Z,4.20
2018-12-12T03:10:43.328Z,4.30
2018-12-12T03:18:09.525Z,4.00
2018-12-12T03:20:43.405Z,4.00
2018-12-12T03:25:41.331Z,4.20
2018-12-12T03:28:10.542Z,4.80
2018-12-12T03:30:39.773Z,4.70
2018-12-12T03:33:08.745Z,5.00
2018-12-12T03:35:37.692Z,4.70
2018-12-12T03:43:04.417Z,4.20
2018-12-12T03:45:33.368Z,4.30
2018-12-12T03:48:02.256Z,4.30
2018-12-12T03:50:31.207Z,4.40
2018-12-12T03:53:00.150Z,4.20
2018-12-12T03:55:29.028Z,4.40
2018-12-12T04:00:26.606Z,4.40
2018-12-12T04:02:56.564Z,4.40
2018-12-12T04:07:54.039Z,4.40
2018-12-12T04:10:23.392Z,4.90
2018-12-12T04:12:52.292Z,4.80
2018-12-12T04:20:18.326Z,5.00
2018-12-12T04:22:47.277Z,5.10
2018-12-12T04:25:16.266Z,5.10
2018-12-12T04:27:45.216Z,5.30
2018-12-12T04:30:14.198Z,5.50
2018-12-12T04:32:43.185Z,5.40
2018-12-12T04:35:13.061Z,5.30
2018-12-12T04:37:41.982Z,5.40
2018-12-12T04:40:13.165Z,5.10
2018-12-12T04:42:42.912Z,5.10
2018-12-12T04:45:12.146Z,5.10
2018-12-12T04:47:43.050Z,5.10
2018-12-12T04:52:41.255Z,5.30
2018-12-12T04:55:11.274Z,5.00
2018-12-12T04:57:44.827Z,5.20
2018-12-12T05:00:14.001Z,5.20
2018-12-12T05:02:43.183Z,5.20
2018-12-12T05:05:12.245Z,5.40
2018-12-12T05:07:42.316Z,5.40
2018-12-12T05:12:40.074Z,4.40
2018-12-12T05:15:09.183Z,4.10
2018-12-12T05:17:38.105Z,4.00
2018-12-12T05:27:33.016Z,2.90
2018-12-12T05:30:01.909Z,3.20
2018-12-12T05:32:32.034Z,2.90
2018-12-12T05:37:29.669Z,2.90
2018-12-12T05:42:27.297Z,3.10
2018-12-12T05:44:56.293Z,3.00
2018-12-12T05:47:25.261Z,2.90
2018-12-12T05:49:54.141Z,2.80
2018-12-12T05:52:23.247Z,2.80
2018-12-12T05:54:52.207Z,3.10
2018-12-12T05:57:21.166Z,3.40
2018-12-12T05:59:50.655Z,3.40
2018-12-12T06:02:19.734Z,3.50
2018-12-12T06:04:48.711Z,2.70
2018-12-12T06:07:17.669Z,2.50
2018-12-12T06:09:46.554Z,2.40
2018-12-12T06:12:15.535Z,2.30
2018-12-12T06:14:44.466Z,2.50
2018-12-12T06:19:42.536Z,2.60
2018-12-12T06:22:11.656Z,2.30
2018-12-12T06:24:40.717Z,2.50
2018-12-12T06:27:09.620Z,2.70
2018-12-12T06:32:07.180Z,3.30
2018-12-12T06:34:36.086Z,3.70
2018-12-12T06:37:05.065Z,3.50
2018-12-12T06:39:33.978Z,3.70
2018-12-12T06:42:03.002Z,3.60
2018-12-12T06:44:32.027Z,3.60
2018-12-12T06:47:00.937Z,3.80
2018-12-12T06:49:31.128Z,3.70
2018-12-12T06:52:00.142Z,3.70
2018-12-12T07:01:55.265Z,3.90
2018-12-12T07:06:52.825Z,4.30
2018-12-12T07:09:21.768Z,4.40
2018-12-12T07:19:16.502Z,4.60
2018-12-12T07:21:45.452Z,4.80
2018-12-12T07:24:14.488Z,5.00
2018-12-12T07:26:43.428Z,4.90
2018-12-12T07:29:19.797Z,5.00
2018-12-12T07:36:45.823Z,4.90
2018-12-12T07:39:17.849Z,5.10
2018-12-12T07:41:45.895Z,4.90
2018-12-12T07:44:16.869Z,5.00
2018-12-12T07:47:04.692Z,5.10
2018-12-12T07:49:35.903Z,5.10
2018-12-12T07:52:21.809Z,5.00
2018-12-12T07:54:50.932Z,5.10
2018-12-12T07:59:48.415Z,5.30
2018-12-12T08:02:17.364Z,5.60
2018-12-12T08:04:46.301Z,5.90
2018-12-12T08:09:43.876Z,6.10
2018-12-12T08:12:12.869Z,6.00
2018-12-12T08:14:41.732Z,6.00
2018-12-12T08:19:40.317Z,6.40
2018-12-12T08:22:09.257Z,6.30
2018-12-12T08:24:38.383Z,6.20
2018-12-12T08:27:07.457Z,6.40
2018-12-12T08:29:36.406Z,6.10
2018-12-12T08:32:05.351Z,6.20
2018-12-12T08:34:34.412Z,6.10
2018-12-12T08:37:03.430Z,6.20
2018-12-12T08:39:32.373Z,6.40
2018-12-12T08:44:29.815Z,6.70
2018-12-12T08:46:58.723Z,6.80
2018-12-12T08:49:27.653Z,7.10
2018-12-12T08:51:56.605Z,7.10
2018-12-12T08:54:25.561Z,6.90
2018-12-12T08:56:54.599Z,7.00
2018-12-12T08:59:23.609Z,7.00
2018-12-12T09:01:52.561Z,7.10
2018-12-12T09:04:21.657Z,7.30
2018-12-12T09:06:50.523Z,7.30
2018-12-12T09:09:19.367Z,7.20
2018-12-12T09:11:48.274Z,7.40
2018-12-12T09:14:17.254Z,7.50
2018-12-12T09:16:46.281Z,7.20
2018-12-12T09:21:43.780Z,7.00
2018-12-12T09:24:12.695Z,7.20
2018-12-12T09:26:44.551Z,7.20
2018-12-12T09:29:13.473Z,7.10
2018-12-12T09:34:15.341Z,6.80
2018-12-12T09:36:44.306Z,6.80
2018-12-12T09:39:13.281Z,7.20
2018-12-12T09:44:10.956Z,6.90
2018-12-12T09:46:39.902Z,7.10
2018-12-12T09:49:08.846Z,7.60
2018-12-12T09:51:39.840Z,7.10
2018-12-12T09:54:10.823Z,7.60
2018-12-12T09:56:39.745Z,7.50
2018-12-12T09:59:08.773Z,7.40
2018-12-12T10:01:37.727Z,7.70
2018-12-12T10:04:06.695Z,7.90
2018-12-12T10:06:35.661Z,7.90
2018-12-12T10:09:06.984Z,7.90
2018-12-12T10:11:37.055Z,8.10
2018-12-12T10:14:05.944Z,8.30
2018-12-12T10:16:34.899Z,8.40
2018-12-12T10:19:03.856Z,8.70
2018-12-12T10:21:32.790Z,8.70
2018-12-12T10:26:30.310Z,8.80
2018-12-12T10:28:59.338Z,8.90
2018-12-12T10:31:28.459Z,9.40
2018-12-12T10:33:57.357Z,9.50
2018-12-12T10:36:26.424Z,9.50
2018-12-12T10:38:55.313Z,9.40
2018-12-12T10:41:24.185Z,9.80
2018-12-12T10:43:53.184Z,10.00
2018-12-12T10:46:22.190Z,10.00
2018-12-12T10:48:51.148Z,10.10
2018-12-12T10:51:20.046Z,10.20
2018-12-12T10:56:17.559Z,10.40
2018-12-12T10:58:46.486Z,10.50
2018-12-12T11:01:20.747Z,10.70
2018-12-12T11:03:49.685Z,10.70
2018-12-12T11:08:47.237Z,10.90
2018-12-12T11:11:16.110Z,10.80
2018-12-12T11:16:13.836Z,9.60
2018-12-12T11:18:42.796Z,9.70
2018-12-12T11:21:12.811Z,10.00
2018-12-12T11:23:41.872Z,10.00
2018-12-12T11:28:39.452Z,10.00
2018-12-12T11:31:08.407Z,9.70
2018-12-12T11:33:37.434Z,9.50
2018-12-12T11:36:06.602Z,9.70
2018-12-12T11:38:35.704Z,9.70
2018-12-12T11:41:05.735Z,9.50
2018-12-12T11:43:34.925Z,9.60
2018-12-12T11:46:03.885Z,9.50
2018-12-12T11:48:32.971Z,10.00
2018-12-12T11:51:01.958Z,9.90
2018-12-12T11:53:30.961Z,10.00
2018-12-12T11:55:59.903Z,9.80
2018-12-12T12:00:57.911Z,9.90
2018-12-12T12:03:28.188Z,9.90
2018-12-12T12:05:57.477Z,10.20
2018-12-12T12:08:26.480Z,10.40
2018-12-12T12:10:55.471Z,10.60
2018-12-12T12:13:27.528Z,10.80
2018-12-12T12:15:56.461Z,10.60
2018-12-12T12:18:29.113Z,10.50
2018-12-12T12:20:58.026Z,10.70
2018-12-12T12:23:27.183Z,10.70
2018-12-12T12:25:56.160Z,10.60
2018-12-12T12:28:25.112Z,11.00
2018-12-12T12:30:54.051Z,10.80
2018-12-12T12:33:23.014Z,11.00
2018-12-12T12:35:51.980Z,11.10
2018-12-12T12:38:20.969Z,10.90
2018-12-12T12:40:49.911Z,11.00
2018-12-12T12:43:18.795Z,11.30
2018-12-12T12:45:47.788Z,11.30
2018-12-12T12:48:16.708Z,11.40
2018-12-12T12:50:45.662Z,11.30
2018-12-12T12:53:14.663Z,11.20
2018-12-12T12:55:43.562Z,11.40
2018-12-12T12:58:12.502Z,12.00
2018-12-12T13:00:41.394Z,11.50
2018-12-12T13:03:10.329Z,11.70
2018-12-12T13:05:39.269Z,11.60
2018-12-12T13:08:09.283Z,11.50
2018-12-12T13:16:00.522Z,11.80
2018-12-12T13:18:29.506Z,11.90
2018-12-12T13:20:58.452Z,12.10
2018-12-12T13:23:27.479Z,12.60
2018-12-12T13:25:56.501Z,12.20
2018-12-12T13:28:25.359Z,12.10
2018-12-12T13:30:54.389Z,12.10
2018-12-12T13:33:23.482Z,12.20
2018-12-12T13:35:52.383Z,12.60
2018-12-12T13:38:21.748Z,12.00
2018-12-12T13:40:50.923Z,11.80
2018-12-12T13:43:26.533Z,12.10
2018-12-12T13:45:55.462Z,11.90
2018-12-12T13:48:24.410Z,12.30
2018-12-12T13:50:53.348Z,12.10
2018-12-12T13:53:22.263Z,12.20
2018-12-12T13:55:51.189Z,11.90
2018-12-12T13:58:20.214Z,11.80
2018-12-12T14:00:49.213Z,12.10
2018-12-12T14:03:18.141Z,12.10
2018-12-12T14:05:47.143Z,12.40
2018-12-12T14:08:16.086Z,11.80
2018-12-12T14:10:45.226Z,12.40
2018-12-12T14:13:15.203Z,12.20
2018-12-12T14:15:44.247Z,11.90
2018-12-12T14:18:13.250Z,12.40
2018-12-12T14:20:42.402Z,12.00
2018-12-12T14:23:11.437Z,12.60
2018-12-12T14:25:40.490Z,12.60
2018-12-12T14:28:09.536Z,12.20
2018-12-12T14:30:38.517Z,12.40
2018-12-12T14:33:07.501Z,12.50
2018-12-12T14:35:36.522Z,12.60
2018-12-12T14:38:05.523Z,12.40
2018-12-12T14:40:34.464Z,12.10
2018-12-12T14:43:03.504Z,12.60
2018-12-12T14:45:32.500Z,13.50
2018-12-12T14:48:01.469Z,13.80
2018-12-12T14:50:30.460Z,14.20
2018-12-12T14:52:59.440Z,14.30
2018-12-12T14:55:28.508Z,13.20
2018-12-12T14:57:57.530Z,13.10
2018-12-12T15:00:26.596Z,13.10
2018-12-12T15:02:55.698Z,12.80
2018-12-12T15:05:24.767Z,12.70
2018-12-12T15:07:53.711Z,11.90
2018-12-12T15:10:22.899Z,12.20
2018-12-12T15:12:51.902Z,11.60
2018-12-12T15:15:20.926Z,11.30
2018-12-12T15:17:49.958Z,10.40
2018-12-12T15:20:19.004Z,10.00
2018-12-12T15:22:48.059Z,9.50
2018-12-12T15:25:17.133Z,9.20
2018-12-12T15:27:46.346Z,9.00
2018-12-12T15:30:17.697Z,9.10
2018-12-12T15:32:47.796Z,8.90
2018-12-12T15:35:16.960Z,8.70
2018-12-12T15:37:45.920Z,8.90
2018-12-12T15:40:14.925Z,8.90
2018-12-12T15:42:43.962Z,8.90
2018-12-12T15:45:12.951Z,8.70
2018-12-12T15:47:42.310Z,8.50
2018-12-12T15:52:41.210Z,8.80
2018-12-12T15:55:10.232Z,8.70
2018-12-12T15:57:40.509Z,8.70
2018-12-12T16:00:10.162Z,8.60
2018-12-12T16:02:39.182Z,8.60
2018-12-12T16:07:36.962Z,7.80
2018-12-12T16:10:06.941Z,7.50
2018-12-12T16:12:35.875Z,7.70
2018-12-12T16:17:33.873Z,7.10
2018-12-12T16:22:32.903Z,6.70
2018-12-12T16:25:02.487Z,6.80
2018-12-12T16:30:00.162Z,6.90
2018-12-12T16:32:29.229Z,7.10
2018-12-12T16:34:58.295Z,7.10
2018-12-12T16:42:24.457Z,6.60
2018-12-12T16:44:55.486Z,6.60
2018-12-12T16:47:30.472Z,6.50
2018-12-12T16:49:59.455Z,6.30
2018-12-12T16:59:54.291Z,6.10
2018-12-12T17:02:23.420Z,6.10
2018-12-12T17:07:20.967Z,6.30
2018-12-12T17:09:49.881Z,6.00
2018-12-12T17:14:47.375Z,6.10
2018-12-12T17:19:44.990Z,6.10
2018-12-12T17:32:08.322Z,5.80
2018-12-12T17:34:37.433Z,6.00
2018-12-12T17:37:06.446Z,5.90
2018-12-12T17:39:35.415Z,6.00
2018-12-12T17:44:40.512Z,6.20
2018-12-12T17:49:38.139Z,5.90
2018-12-12T17:52:07.151Z,5.60
2018-12-12T17:59:34.233Z,5.80
2018-12-12T18:04:49.410Z,5.50
2018-12-12T18:07:18.414Z,5.80
2018-12-12T18:14:44.428Z,5.80
2018-12-12T18:17:15.557Z,5.90
2018-12-12T18:19:44.502Z,5.40
2018-12-12T18:27:12.635Z,4.90
2018-12-12T18:32:12.235Z,5.00
2018-12-12T18:35:03.159Z,4.80
2018-12-12T18:37:32.149Z,4.60
2018-12-12T18:42:31.713Z,4.90
2018-12-12T18:47:29.298Z,4.20
2018-12-12T18:49:58.285Z,4.10
2018-12-12T18:55:03.754Z,4.20
2018-12-12T18:57:34.795Z,4.30
2018-12-12T19:00:03.875Z,4.60
2018-12-12T19:02:32.811Z,4.50
2018-12-12T19:05:01.953Z,4.10
2018-12-12T19:07:30.976Z,4.10
2018-12-12T19:12:28.526Z,4.60
2018-12-12T19:20:01.313Z,4.30
2018-12-12T19:22:30.222Z,4.40
2018-12-12T19:24:59.532Z,4.30
2018-12-12T19:27:28.546Z,4.20
2018-12-12T19:29:57.465Z,4.20
2018-12-12T19:32:26.417Z,4.20
2018-12-12T19:39:52.553Z,4.30
2018-12-12T19:42:21.733Z,4.20
2018-12-12T19:44:50.741Z,4.10
2018-12-12T19:47:19.693Z,4.40
2018-12-12T19:54:45.871Z,4.50
2018-12-12T20:02:12.297Z,3.90
2018-12-12T20:07:10.156Z,4.10
2018-12-12T20:09:39.165Z,4.40
2018-12-12T20:12:08.079Z,4.30
2018-12-12T20:14:37.108Z,4.10
2018-12-12T20:17:06.094Z,4.40
2018-12-12T20:24:32.230Z,3.70
2018-12-12T20:27:03.986Z,3.60
2018-12-12T20:29:32.976Z,3.50
2018-12-12T20:34:30.485Z,3.50
2018-12-12T20:36:59.407Z,3.80
2018-12-12T20:39:28.437Z,3.70
2018-12-12T20:41:57.361Z,3.70
2018-12-12T20:44:26.337Z,3.50
2018-12-12T20:49:24.173Z,3.80
2018-12-12T20:56:51.690Z,3.20
2018-12-12T20:59:20.748Z,3.40
2018-12-12T21:04:18.325Z,3.50
2018-12-12T21:06:47.366Z,3.70
2018-12-12T21:09:17.376Z,3.50
2018-12-12T21:14:14.810Z,3.10
2018-12-12T21:21:41.009Z,3.30
2018-12-12T21:24:09.923Z,3.00
2018-12-12T21:26:38.795Z,3.00
2018-12-12T21:36:33.376Z,3.30
2018-12-12T21:39:02.321Z,3.40
2018-12-12T21:41:32.386Z,3.40
2018-12-12T21:44:01.331Z,3.60
2018-12-12T21:46:30.413Z,3.60
2018-12-12T21:51:27.942Z,3.30
2018-12-12T21:53:56.880Z,3.30
2018-12-12T21:56:26.941Z,3.50
2018-12-12T21:58:55.886Z,3.70
2018-12-12T22:01:24.827Z,3.70
2018-12-12T22:06:22.387Z,3.50
2018-12-12T22:08:51.335Z,3.80
2018-12-12T22:11:20.245Z,3.60
2018-12-12T22:13:49.209Z,3.40
2018-12-12T22:21:15.327Z,3.50
2018-12-12T22:23:44.305Z,3.60
2018-12-12T22:26:13.301Z,3.50
2018-12-12T22:33:40.672Z,3.40
2018-12-12T22:36:14.106Z,3.30
2018-12-12T22:38:40.621Z,3.60
2018-12-12T22:43:38.267Z,3.60
2018-12-12T22:46:07.226Z,3.80
2018-12-12T22:48:36.158Z,3.60
2018-12-12T22:56:02.234Z,3.30
2018-12-12T22:58:31.152Z,3.30
2018-12-12T23:01:07.673Z,3.40
2018-12-12T23:03:36.927Z,3.50
2018-12-12T23:11:02.949Z,2.90
2018-12-12T23:13:31.881Z,2.90
2018-12-12T23:16:00.817Z,2.90
2018-12-12T23:23:26.845Z,3.20
2018-12-12T23:25:55.884Z,2.80
2018-12-12T23:28:24.798Z,2.90
2018-12-12T23:35:50.864Z,2.70
2018-12-12T23:38:19.856Z,2.70
2018-12-12T23:40:48.800Z,3.10
2018-12-12T23:45:46.292Z,2.40
2018-12-12T23:48:15.258Z,2.30
2018-12-12T23:50:44.173Z,2.30
2018-12-12T23:53:13.126Z,2.40
2018-12-12T23:55:42.163Z,2.20
2018-12-12T23:58:11.075Z,2.10
